Latest Weather Observations for Inglewood

IDQ60801

Issued at 7:05 am EST Sunday 26 October 2014 (issued every 30 minutes, with the page automatically refreshed every 10 minutes)

About weather observations | Map of weather stations | Latest weather observations for QLD | Other Formats
Station Details ID: 041097 Name: INGLEWOOD FOREST Lat: -28.34 Lon: 150.94 Height: 379.0 m
Data from the previous 72 hours. | See also: Recent months at Inglewood
Date/Time
EST
Temp
°C
App
Temp
°C
Dew
Point
Rel
Hum
%
Delta-T
°C
Wind Press
QNH
hPa
Press
MSL
hPa
Rain
since 9 am
mm
Dir
 
Spd
km/h
Gust
km/h
Spd
kts
Gust
kts
26/07:00am - - - - - N 17 24 9 13 - - 0.0
26/06:30am - - - - - N 13 20 7 11 - - 0.0
26/06:00am - - - - - N 11 19 6 10 - - 0.0
26/05:30am - - - - - N 13 22 7 12 - - 0.0
26/05:00am - - - - - N 13 19 7 10 - - 0.0
26/04:30am - - - - - NNE 13 17 7 9 - - 0.0
26/04:00am - - - - - N 11 19 6 10 - - 0.0
26/03:30am - - - - - NNE 13 20 7 11 - - 0.0
26/03:00am - - - - - NNE 13 20 7 11 - - 0.0
26/02:30am - - - - - NE 13 20 7 11 - - 0.0
26/02:00am - - - - - NNE 15 24 8 13 - - 0.0
26/01:30am - - - - - NE 11 17 6 9 - - 0.0
26/01:00am - - - - - ENE 13 17 7 9 - - 0.0
26/12:30am - - - - - ENE 13 19 7 10 - - 0.0
26/12:00am - - - - - ENE 15 22 8 12 - - 0.0
 
Date/Time
EST
Temp
°C
App
Temp
°C
Dew
Point
Rel
Hum
%
Delta-T
°C
Wind Press
QNH
hPa
Press
MSL
hPa
Rain
since 9 am
mm
Dir
 
Spd
km/h
Gust
km/h
Spd
kts
Gust
kts
25/11:30pm - - - - - E 15 19 8 10 - - 0.0
25/11:00pm - - - - - E 13 19 7 10 - - 0.0
25/10:30pm - - - - - NW 6 7 3 4 - - 0.0
25/10:00pm - - - - - NW 7 7 4 4 - - 0.0
25/09:30pm - - - - - W 6 6 3 3 - - 0.0
25/09:00pm - - - - - W 6 6 3 3 - - 0.0
25/08:30pm - - - - - WSW 4 6 2 3 - - 0.0
25/08:00pm - - - - - WSW 6 7 3 4 - - 0.0
25/07:30pm - - - - - SW 6 7 3 4 - - 0.0
25/07:00pm - - - - - SW 7 9 4 5 - - 0.0
25/06:30pm - - - - - SW 6 9 3 5 - - 0.0
25/06:00pm - - - - - SW 9 15 5 8 - - 0.0
25/05:30pm - - - - - SSW 11 20 6 11 - - 0.0
25/05:00pm - - - - - SSE 9 19 5 10 - - 0.0
25/04:30pm - - - - - SW 15 20 8 11 - - 0.0
25/04:00pm - - - - - SW 17 26 9 14 - - 0.0
25/03:30pm - - - - - SW 11 20 6 11 - - 0.0
25/03:00pm - - - - - SSW 13 24 7 13 - - 0.0
25/02:30pm - - - - - WSW 17 32 9 17 - - 0.0
25/02:00pm - - - - - WSW 13 20 7 11 - - 0.0
25/01:30pm - - - - - S 15 20 8 11 - - 0.0
25/01:00pm - - - - - SW 17 24 9 13 - - 0.0
25/12:30pm - - - - - W 15 30 8 16 - - 0.0
25/12:00pm - - - - - W 15 28 8 15 - - 0.0
25/11:30am - - - - - WNW 9 24 5 13 - - 0.0
25/11:00am - - - - - W 20 30 11 16 - - 0.0
25/10:30am - - - - - NNW 15 26 8 14 - - 0.0
25/10:00am - - - - - NW 13 20 7 11 - - 0.0
25/09:30am - - - - - NNW 13 20 7 11 - - 0.0
25/09:00am - - - - - NNW 15 22 8 12 - - 0.0
25/08:30am - - - - - NNW 15 24 8 13 - - 0.0
25/08:00am - - - - - N 19 32 10 17 - - 0.0
25/07:30am - - - - - N 19 30 10 16 - - 0.0
25/07:00am - - - - - N 19 32 10 17 - - 0.0
25/06:30am - - - - - N 15 32 8 17 - - 0.0
25/06:00am - - - - - N 13 20 7 11 - - 0.0
25/05:30am - - - - - NNE 11 19 6 10 - - 0.0
25/05:00am - - - - - N 9 15 5 8 - - 0.0
25/04:30am - - - - - NNE 11 15 6 8 - - 0.0
25/04:00am - - - - - NNE 11 17 6 9 - - 0.0
25/03:30am - - - - - NE 11 17 6 9 - - 0.0
25/03:00am - - - - - NE 9 15 5 8 - - 0.0
25/02:30am - - - - - NE 11 17 6 9 - - 0.0
25/02:00am - - - - - NNE 9 19 5 10 - - 0.0
25/01:30am - - - - - NNE 9 17 5 9 - - 0.0
25/01:00am - - - - - NNE 11 20 6 11 - - 0.0
25/12:30am - - - - - NNE 15 22 8 12 - - 0.0
25/12:00am - - - - - NNE 17 28 9 15 - - 0.0
 
Date/Time
EST
Temp
°C
App
Temp
°C
Dew
Point
Rel
Hum
%
Delta-T
°C
Wind Press
QNH
hPa
Press
MSL
hPa
Rain
since 9 am
mm
Dir
 
Spd
km/h
Gust
km/h
Spd
kts
Gust
kts
24/11:30pm - - - - - NNE 19 30 10 16 - - 0.0
24/11:00pm - - - - - NNE 17 26 9 14 - - 0.0
24/10:30pm - - - - - NNE 19 30 10 16 - - 0.0
24/10:00pm - - - - - NNE 19 28 10 15 - - 0.0
24/09:30pm - - - - - NNE 17 28 9 15 - - 0.0
24/09:00pm - - - - - NNE 17 22 9 12 - - 0.0
24/08:30pm - - - - - NNE 17 32 9 17 - - 0.0
24/08:00pm - - - - - NNE 9 13 5 7 - - 0.0
24/07:30pm - - - - - N 9 13 5 7 - - 0.0
24/07:00pm - - - - - NNE 11 13 6 7 - - 0.0
24/06:30pm - - - - - NE 9 11 5 6 - - 0.0
24/06:00pm - - - - - E 9 11 5 6 - - 0.0
24/05:30pm - - - - - E 9 13 5 7 - - 0.0
24/05:00pm - - - - - ESE 11 17 6 9 - - 0.0
24/04:30pm - - - - - ESE 9 17 5 9 - - 0.0
24/04:00pm - - - - - WNW 6 11 3 6 - - 0.0
24/03:30pm - - - - - SSE 11 20 6 11 - - 0.0
24/03:00pm - - - - - SSE 9 17 5 9 - - 0.0
24/02:30pm - - - - - ESE 15 24 8 13 - - 0.0
24/02:00pm - - - - - SE 15 24 8 13 - - 0.0
24/01:30pm - - - - - NNE 7 15 4 8 - - 0.0
24/01:00pm - - - - - NNE 9 17 5 9 - - 0.0
24/12:30pm - - - - - WNW 13 24 7 13 - - 0.0
24/12:00pm - - - - - NNE 9 19 5 10 - - 0.0
24/11:30am - - - - - NNW 13 20 7 11 - - 0.0
24/11:00am - - - - - NNW 11 28 6 15 - - 0.0
24/10:30am - - - - - W 11 20 6 11 - - 0.0
24/10:00am - - - - - NW 13 24 7 13 - - 0.0
24/09:30am - - - - - N 13 24 7 13 - - 0.0
24/09:00am - - - - - N 13 26 7 14 - - 0.0
24/08:30am - - - - - NNE 13 28 7 15 - - 0.0
24/08:00am - - - - - N 15 26 8 14 - - 0.0
24/07:30am - - - - - N 15 28 8 15 - - 0.0
24/07:00am - - - - - N 13 26 7 14 - - 0.0
24/06:30am - - - - - N 13 20 7 11 - - 0.0
24/06:00am - - - - - NNE 9 17 5 9 - - 0.0
24/05:30am - - - - - NNE 11 15 6 8 - - 0.0
24/05:00am - - - - - NE 11 19 6 10 - - 0.0
24/04:30am - - - - - NE 11 17 6 9 - - 0.0
24/04:00am - - - - - ENE 11 15 6 8 - - 0.0
24/03:30am - - - - - NE 9 13 5 7 - - 0.0
24/03:00am - - - - - ENE 11 17 6 9 - - 0.0
24/02:30am - - - - - NE 13 19 7 10 - - 0.0
24/02:00am - - - - - ESE 15 24 8 13 - - 0.0
24/01:30am - - - - - E 11 15 6 8 - - 0.0
24/01:00am - - - - - E 13 17 7 9 - - 0.0
24/12:30am - - - - - E 13 19 7 10 - - 0.0
24/12:00am - - - - - NNE 9 13 5 7 - - 0.0
 
Date/Time
EST
Temp
°C
App
Temp
°C
Dew
Point
Rel
Hum
%
Delta-T
°C
Wind Press
QNH
hPa
Press
MSL
hPa
Rain
since 9 am
mm
Dir
 
Spd
km/h
Gust
km/h
Spd
kts
Gust
kts
23/11:30pm - - - - - NNE 11 19 6 10 - - 0.0
23/11:00pm - - - - - NNE 11 19 6 10 - - 0.0
23/10:30pm - - - - - ENE 13 17 7 9 - - 0.0
23/10:00pm - - - - - NE 15 24 8 13 - - 0.0
23/09:30pm - - - - - NE 17 28 9 15 - - 0.0
23/09:00pm - - - - - ENE 19 35 10 19 - - 0.0
23/08:30pm - - - - - E 22 37 12 20 - - 0.0
23/08:10pm - - - - - E 28 46 15 25 - - 0.0
23/08:00pm - - - - - E 15 28 8 15 - - 0.0
23/07:30pm - - - - - NW 6 7 3 4 - - 0.0
23/07:00pm - - - - - CALM 0 0 0 0 - - 0.0
23/06:30pm - - - - - W 6 7 3 4 - - 0.0
23/06:00pm - - - - - W 9 13 5 7 - - 0.0
23/05:30pm - - - - - SSW 9 13 5 7 - - 0.0
23/05:00pm - - - - - WSW 9 15 5 8 - - 0.0
23/04:30pm - - - - - S 13 22 7 12 - - 0.0
23/04:00pm - - - - - S 17 32 9 17 - - 0.0
23/03:30pm - - - - - SSW 13 20 7 11 - - 0.0
23/03:00pm - - - - - S 11 24 6 13 - - 0.0
23/02:30pm - - - - - WSW 9 15 5 8 - - 0.0
23/02:00pm - - - - - SW 13 24 7 13 - - 0.0
23/01:30pm - - - - - SW 11 24 6 13 - - 0.0
23/01:00pm - - - - - S 9 17 5 9 - - 0.0
23/12:30pm - - - - - WSW 13 22 7 12 - - 0.0
23/12:00pm - - - - - NW 13 22 7 12 - - 0.0
23/11:30am - - - - - W 9 19 5 10 - - 0.0
23/11:00am - - - - - WNW 11 19 6 10 - - 0.0
23/10:30am - - - - - W 11 20 6 11 - - 0.0
23/10:00am - - - - - WSW 13 20 7 11 - - 0.0
23/09:30am - - - - - NNW 11 20 6 11 - - 0.0
23/09:00am - - - - - NNE 9 19 5 10 - - 0.0
23/08:30am - - - - - NNE 9 17 5 9 - - 0.0
23/08:00am - - - - - NNE 9 15 5 8 - - 0.0
23/07:30am - - - - - NNE 11 19 6 10 - - 0.0

Other Formats:

Comma delimited format used in spreadsheet applications
http://www.bom.gov.au/fwo/IDQ60801/IDQ60801.95573.axf

JavaScript Object Notation format (JSON) in row-major order
http://www.bom.gov.au/fwo/IDQ60801/IDQ60801.95573.json